Time;durP1;ratioP1;P1;durP2;ratioP2;P2;SDS_P1;SDS_P2;PMS_P1;PMS_P2;Temp;Humidity;BMP_temperature;BMP_pressure;BME280_temperature;BME280_humidity;BME280_pressure;Samples;Min_cycle;Max_cycle;Signal;HPM_P1;HPM_P2
2022/06/03 00:00:19;;;;;;;;;;;;;;;11.26;66.57;100725.66;5084876;28;19930;-51
2022/06/03 00:03:08;;;;;;;;;;;;;;;11.23;66.61;100717.91;5133566;28;19923;-50
2022/06/03 00:05:59;;;;;;;;;;;;;;;11.24;66.77;100715.97;5133207;28;20306;-53
2022/06/03 00:08:45;;;;;;;;;;;;;;;11.16;66.94;100700.78;5133577;28;19924;-53
2022/06/03 00:11:23;;;;;;;;;;;;;;;11.11;66.73;100703.72;5130970;28;19923;-54
2022/06/03 00:14:05;;;;;;;;;;;;;;;11.02;67.04;100703.59;5133833;28;19930;-54
2022/06/03 00:16:40;;;;;;;;;;;;;;;10.99;67.06;100695.03;5132075;28;19923;-52
2022/06/03 00:19:30;;;;;;;;;;;;;;;10.96;66.89;100694.53;5133300;28;19931;-53
2022/06/03 00:22:05;;;;;;;;;;;;;;;10.90;67.10;100695.78;5133156;28;19927;-53
2022/06/03 00:24:47;;;;;;;;;;;;;;;10.90;67.19;100700.53;5133745;28;19931;-51
2022/06/03 00:27:23;;;;;;;;;;;;;;;10.87;67.45;100704.75;5128001;28;20412;-53
2022/06/03 00:30:02;;;;;;;;;;;;;;;10.84;67.80;100696.19;5133111;28;19981;-52
2022/06/03 00:32:46;;;;;;;;;;;;;;;10.79;67.79;100693.50;5129758;28;20376;-52
2022/06/03 00:35:27;;;;;;;;;;;;;;;10.82;67.35;100693.72;5111533;28;19923;-52
2022/06/03 00:37:57;;;;;;;;;;;;;;;10.84;67.39;100680.28;5112722;28;19930;-51
2022/06/03 00:40:35;;;;;;;;;;;;;;;10.80;67.79;100681.25;5112207;28;19924;-52
2022/06/03 00:43:14;;;;;;;;;;;;;;;10.79;67.77;100685.97;5092262;28;19924;-51
2022/06/03 00:45:56;;;;;;;;;;;;;;;10.73;67.71;100684.41;5094812;28;19924;-50
2022/06/03 00:48:31;;;;;;;;;;;;;;;10.68;68.05;100674.22;5115364;28;19927;-53
2022/06/03 00:51:19;;;;;;;;;;;;;;;10.69;67.50;100675.88;5116334;28;19928;-52
2022/06/03 00:53:57;;;;;;;;;;;;;;;10.67;67.71;100668.97;5115863;28;19942;-51
2022/06/03 00:56:33;;;;;;;;;;;;;;;10.66;67.84;100670.91;5128347;27;20395;-52
2022/06/03 00:59:10;;;;;;;;;;;;;;;10.65;67.59;100663.69;5136917;27;19923;-51
2022/06/03 01:01:42;;;;;;;;;;;;;;;10.62;68.05;100658.72;5136439;27;19924;-52
2022/06/03 01:04:27;;;;;;;;;;;;;;;10.59;68.21;100658.53;5136428;27;19935;-53
2022/06/03 01:06:59;;;;;;;;;;;;;;;10.55;68.04;100661.13;5136739;27;20307;-51
2022/06/03 01:09:35;;;;;;;;;;;;;;;10.52;68.07;100654.22;5134396;27;20386;-50
2022/06/03 01:12:15;;;;;;;;;;;;;;;10.51;67.70;100655.34;5136676;27;19924;-51
2022/06/03 01:15:00;;;;;;;;;;;;;;;10.47;67.86;100654.31;5136133;27;19934;-50
2022/06/03 01:17:32;;;;;;;;;;;;;;;10.43;67.63;100661.63;5136298;27;19923;-50
2022/06/03 01:20:10;;;;;;;;;;;;;;;10.41;68.06;100661.09;5136629;27;19931;-51
2022/06/03 01:22:52;;;;;;;;;;;;;;;10.38;68.12;100658.94;5135958;27;19930;-50
2022/06/03 01:25:31;;;;;;;;;;;;;;;10.32;68.74;100657.41;5116102;27;19942;-50
2022/06/03 01:28:14;;;;;;;;;;;;;;;10.31;68.07;100659.38;5136035;27;19930;-50
2022/06/03 01:30:49;;;;;;;;;;;;;;;10.27;68.32;100649.94;5131651;27;19930;-53
2022/06/03 01:33:23;;;;;;;;;;;;;;;10.26;68.09;100656.63;5126056;27;19923;-51
2022/06/03 01:36:03;;;;;;;;;;;;;;;10.25;68.23;100657.78;5115347;28;19924;-52
2022/06/03 01:38:38;;;;;;;;;;;;;;;10.18;68.65;100657.34;5123577;27;19931;-53
2022/06/03 01:41:13;;;;;;;;;;;;;;;10.15;68.60;100657.97;5135688;27;19949;-55
2022/06/03 01:43:47;;;;;;;;;;;;;;;10.17;68.76;100664.06;5136106;27;19924;-50
2022/06/03 01:46:30;;;;;;;;;;;;;;;10.20;68.63;100657.03;5135863;27;20260;-52
2022/06/03 01:49:21;;;;;;;;;;;;;;;10.24;68.76;100655.28;5127755;27;19931;-52
2022/06/03 01:52:08;;;;;;;;;;;;;;;10.25;68.25;100656.97;5114342;28;19947;-52
2022/06/03 01:54:57;;;;;;;;;;;;;;;10.25;68.46;100654.19;5094372;28;19931;-53
2022/06/03 01:57:39;;;;;;;;;;;;;;;10.30;68.30;100646.56;5094671;28;19931;-52
2022/06/03 02:00:25;;;;;;;;;;;;;;;10.27;68.50;100654.69;5093570;28;19924;-52
2022/06/03 02:02:55;;;;;;;;;;;;;;;10.29;68.55;100652.41;5119165;27;20374;-52
2022/06/03 02:05:51;;;;;;;;;;;;;;;10.29;68.48;100658.84;5134930;27;19930;-52
2022/06/03 02:08:37;;;;;;;;;;;;;;;10.28;68.46;100645.19;5135260;27;19923;-52
2022/06/03 02:11:25;;;;;;;;;;;;;;;10.26;68.44;100656.63;5135058;27;19931;-52
2022/06/03 02:14:10;;;;;;;;;;;;;;;10.27;67.87;100641.59;5135810;27;19923;-52
2022/06/03 02:16:54;;;;;;;;;;;;;;;10.19;67.88;100647.06;5132562;27;19930;-52
2022/06/03 02:19:28;;;;;;;;;;;;;;;10.12;68.07;100639.94;5121345;27;19931;-53
2022/06/03 02:22:03;;;;;;;;;;;;;;;10.04;68.19;100643.41;5130136;27;19950;-54
2022/06/03 02:24:42;;;;;;;;;;;;;;;10.05;67.97;100636.72;5134976;27;19931;-50
2022/06/03 02:27:42;;;;;;;;;;;;;;;9.99;67.98;100629.59;5135054;27;19924;-51
2022/06/03 02:30:26;;;;;;;;;;;;;;;9.96;68.19;100627.44;5132868;27;20268;-51
2022/06/03 02:33:11;;;;;;;;;;;;;;;9.89;68.63;100626.97;5084892;27;19924;-52
2022/06/03 02:35:53;;;;;;;;;;;;;;;9.87;68.24;100623.69;5121021;27;19953;-53
2022/06/03 02:38:40;;;;;;;;;;;;;;;9.87;68.13;100623.69;5134464;27;20430;-50
2022/06/03 02:41:20;;;;;;;;;;;;;;;9.83;68.39;100619.88;5134764;27;19923;-56
2022/06/03 02:44:08;;;;;;;;;;;;;;;9.74;69.03;100634.50;5134760;27;19923;-50
2022/06/03 02:46:52;;;;;;;;;;;;;;;9.71;69.26;100632.31;5134476;27;19931;-51
2022/06/03 02:49:43;;;;;;;;;;;;;;;9.68;68.92;100630.16;5129439;27;19930;-52
2022/06/03 02:52:35;;;;;;;;;;;;;;;9.63;69.58;100629.41;5088176;28;20376;-53
2022/06/03 02:55:19;;;;;;;;;;;;;;;9.65;69.20;100625.19;5073182;28;20022;-55
2022/06/03 02:58:01;;;;;;;;;;;;;;;9.60;69.32;100624.47;5093782;28;20026;-51
2022/06/03 03:00:37;;;;;;;;;;;;;;;9.55;69.32;100622.56;5059600;28;20392;-53
2022/06/03 03:03:24;;;;;;;;;;;;;;;9.59;68.87;100623.63;5093446;28;19924;-52
2022/06/03 03:06:13;;;;;;;;;;;;;;;9.55;68.80;100620.63;5103498;28;19927;-52
2022/06/03 03:08:52;;;;;;;;;;;;;;;9.51;68.94;100619.59;5088668;28;19947;-50
2022/06/03 03:11:31;;;;;;;;;;;;;;;9.48;69.85;100631.31;5113160;28;19924;-53
2022/06/03 03:14:10;;;;;;;;;;;;;;;9.44;69.75;100621.09;5113727;28;19924;-51
2022/06/03 03:16:46;;;;;;;;;;;;;;;9.44;69.86;100613.56;5113369;28;19947;-52
2022/06/03 03:19:23;;;;;;;;;;;;;;;9.47;69.35;100614.91;5111872;28;19971;-54
2022/06/03 03:22:00;;;;;;;;;;;;;;;9.42;69.30;100612.25;5113922;28;20384;-53
2022/06/03 03:24:34;;;;;;;;;;;;;;;9.44;68.98;100621.09;5113924;28;19924;-51
2022/06/03 03:27:15;;;;;;;;;;;;;;;9.39;69.60;100608.13;5113488;28;19931;-52
2022/06/03 03:29:51;;;;;;;;;;;;;;;9.38;69.45;100611.19;5113782;28;20268;-53
2022/06/03 03:32:29;;;;;;;;;;;;;;;9.35;69.58;100610.66;5109661;28;19931;-52
2022/06/03 03:35:15;;;;;;;;;;;;;;;9.33;69.96;100609.31;5093371;28;19924;-51
2022/06/03 03:37:57;;;;;;;;;;;;;;;9.38;69.44;100606.44;5092744;28;19931;-53
2022/06/03 03:40:42;;;;;;;;;;;;;;;9.38;69.44;100598.09;5092630;28;19924;-51
2022/06/03 03:43:22;;;;;;;;;;;;;;;9.38;69.46;100602.84;5093072;28;19931;-54
2022/06/03 03:46:25;;;;;;;;;;;;;;;9.43;69.61;100598.03;5092930;28;19924;-50
2022/06/03 03:49:09;;;;;;;;;;;;;;;9.33;69.48;100590.69;5105407;28;20283;-50
2022/06/03 03:51:54;;;;;;;;;;;;;;;9.37;69.71;100592.88;5112589;28;19924;-53
2022/06/03 03:54:51;;;;;;;;;;;;;;;9.39;69.97;100604.50;5123792;27;19927;-53
2022/06/03 03:57:33;;;;;;;;;;;;;;;9.42;69.98;100601.13;5040268;28;19925;-54
2022/06/03 04:00:24;;;;;;;;;;;;;;;9.47;69.42;100599.09;5101489;28;19931;-51
2022/06/03 04:03:16;;;;;;;;;;;;;;;9.49;69.44;100601.53;5071804;28;19928;-51
2022/06/03 04:05:55;;;;;;;;;;;;;;;9.57;68.79;100598.06;5113002;28;19924;-51
2022/06/03 04:08:36;;;;;;;;;;;;;;;9.62;68.91;100606.34;5114451;28;19935;-51
2022/06/03 04:11:21;;;;;;;;;;;;;;;9.66;69.41;100598.19;5133626;28;19924;-51
2022/06/03 04:14:12;;;;;;;;;;;;;;;9.71;69.75;100596.16;5133689;28;20033;-52
2022/06/03 04:16:59;;;;;;;;;;;;;;;9.78;69.36;100595.75;5036563;28;19968;-51
2022/06/03 04:19:40;;;;;;;;;;;;;;;9.90;69.06;100603.59;5112795;28;19924;-50
2022/06/03 04:22:22;;;;;;;;;;;;;;;9.99;68.96;100607.31;5125261;27;19930;-53
2022/06/03 04:25:07;;;;;;;;;;;;;;;10.12;68.87;100602.91;5113408;28;19931;-51
2022/06/03 04:28:07;;;;;;;;;;;;;;;10.20;68.70;100598.59;5105241;28;19924;-51
2022/06/03 04:31:04;;;;;;;;;;;;;;;10.37;68.25;100593.25;5103779;28;20368;-51
2022/06/03 04:33:51;;;;;;;;;;;;;;;10.46;67.83;100583.03;5059896;28;20320;-53
2022/06/03 04:36:36;;;;;;;;;;;;;;;10.54;68.01;100596.25;5070813;28;19924;-54
2022/06/03 04:39:16;;;;;;;;;;;;;;;10.63;67.89;100599.13;5070212;27;19932;-54
2022/06/03 04:41:58;;;;;;;;;;;;;;;10.73;67.82;100595.25;5114913;28;19923;-52
2022/06/03 04:44:48;;;;;;;;;;;;;;;10.89;67.62;100596.56;5105344;28;19923;-54
2022/06/03 04:47:34;;;;;;;;;;;;;;;11.03;67.21;100590.16;5110365;27;19931;-52
2022/06/03 04:50:21;;;;;;;;;;;;;;;11.11;67.07;100586.63;5111684;27;19932;-52
2022/06/03 04:53:07;;;;;;;;;;;;;;;11.16;67.20;100575.34;5089941;28;19924;-55
2022/06/03 04:55:57;;;;;;;;;;;;;;;11.30;67.34;100578.91;5106536;27;19928;-54
2022/06/03 04:58:43;;;;;;;;;;;;;;;11.38;66.86;100580.91;5020320;28;19937;-52
2022/06/03 05:01:24;;;;;;;;;;;;;;;11.48;66.81;100565.06;5110864;28;19931;-52
2022/06/03 05:04:10;;;;;;;;;;;;;;;11.57;66.13;100575.13;5110869;27;19924;-54
2022/06/03 05:06:55;;;;;;;;;;;;;;;11.65;65.78;100573.53;5113170;27;19930;-52
2022/06/03 05:09:51;;;;;;;;;;;;;;;11.76;65.77;100563.75;5117556;27;19930;-53
2022/06/03 05:12:37;;;;;;;;;;;;;;;11.88;65.57;100567.91;5096076;28;19924;-52
2022/06/03 05:15:23;;;;;;;;;;;;;;;11.92;65.66;100580.09;5106959;27;19924;-52
2022/06/03 05:18:09;;;;;;;;;;;;;;;12.04;65.33;100580.34;5112638;28;19924;-54
2022/06/03 05:20:54;;;;;;;;;;;;;;;12.11;65.72;100566.72;5113818;28;19923;-52
2022/06/03 05:23:40;;;;;;;;;;;;;;;12.22;65.61;100572.03;5109931;27;20394;-55
2022/06/03 05:26:25;;;;;;;;;;;;;;;12.35;65.76;100573.91;5100188;28;19923;-54
2022/06/03 05:29:06;;;;;;;;;;;;;;;12.44;65.95;100569.13;5114587;28;19927;-52
2022/06/03 05:31:51;;;;;;;;;;;;;;;12.50;66.41;100567.03;5112465;28;19927;-54
2022/06/03 05:34:33;;;;;;;;;;;;;;;12.56;66.47;100560.97;5107843;27;20375;-55
2022/06/03 05:37:13;;;;;;;;;;;;;;;12.68;66.33;100556.69;5127615;27;20414;-52
2022/06/03 05:39:57;;;;;;;;;;;;;;;12.74;66.14;100553.41;5110077;27;19924;-55
2022/06/03 05:42:36;;;;;;;;;;;;;;;12.87;66.14;100551.63;5113156;28;20281;-54
2022/06/03 05:45:27;;;;;;;;;;;;;;;12.97;65.88;100551.28;5134356;27;19923;-54
2022/06/03 05:47:57;;;;;;;;;;;;;;;13.07;65.57;100546.53;5106392;27;19924;-54
2022/06/03 05:50:31;;;;;;;;;;;;;;;13.19;65.75;100552.28;5096769;28;20200;-54
2022/06/03 05:53:08;;;;;;;;;;;;;;;13.28;66.01;100549.47;5113977;27;19923;-55
2022/06/03 05:55:40;;;;;;;;;;;;;;;13.35;66.34;100533.84;5083216;28;19931;-54
2022/06/03 05:58:22;;;;;;;;;;;;;;;13.38;67.10;100538.78;5071427;28;20407;-53
2022/06/03 06:01:01;;;;;;;;;;;;;;;13.52;66.79;100534.97;5052815;28;19924;-55
2022/06/03 06:03:35;;;;;;;;;;;;;;;13.73;65.86;100521.91;5068107;28;20238;-55
2022/06/03 06:06:15;;;;;;;;;;;;;;;13.92;64.75;100526.28;5062731;28;19931;-52
2022/06/03 06:08:50;;;;;;;;;;;;;;;14.05;62.96;100528.06;5067631;28;19924;-54
2022/06/03 06:11:20;;;;;;;;;;;;;;;14.26;62.43;100530.06;5086065;28;19924;-52
2022/06/03 06:13:57;;;;;;;;;;;;;;;14.38;62.14;100521.75;5074118;28;19931;-53
2022/06/03 06:16:31;;;;;;;;;;;;;;;14.59;61.94;100521.81;5073289;28;19928;-53
2022/06/03 06:19:04;;;;;;;;;;;;;;;14.68;63.57;100527.34;5063199;28;20273;-52
2022/06/03 06:21:50;;;;;;;;;;;;;;;14.84;63.28;100519.16;5054361;28;20282;-53
2022/06/03 06:24:21;;;;;;;;;;;;;;;15.01;62.97;100514.25;5077605;28;19924;-52
2022/06/03 06:27:09;;;;;;;;;;;;;;;15.13;63.46;100509.84;5081499;28;19924;-52
2022/06/03 06:29:50;;;;;;;;;;;;;;;15.27;63.31;100501.13;5076703;28;20281;-51
2022/06/03 06:32:32;;;;;;;;;;;;;;;15.37;63.04;100507.13;5086051;28;19924;-52
2022/06/03 06:35:17;;;;;;;;;;;;;;;15.56;62.85;100502.94;5074373;28;19931;-52
2022/06/03 06:37:55;;;;;;;;;;;;;;;15.65;62.27;100505.69;5073464;28;19931;-52
2022/06/03 06:40:37;;;;;;;;;;;;;;;15.76;61.95;100507.72;5072359;28;19940;-52
2022/06/03 06:43:09;;;;;;;;;;;;;;;15.90;61.22;100500.97;5082441;28;19924;-52
2022/06/03 06:45:41;;;;;;;;;;;;;;;16.02;60.88;100500.94;5075267;28;20304;-52
2022/06/03 06:48:13;;;;;;;;;;;;;;;16.15;60.32;100502.59;5073654;28;19931;-53
2022/06/03 06:50:46;;;;;;;;;;;;;;;16.31;60.33;100504.69;5076366;28;19924;-53
2022/06/03 06:53:17;;;;;;;;;;;;;;;16.45;60.28;100513.56;5082495;28;19924;-52
2022/06/03 06:55:52;;;;;;;;;;;;;;;16.63;60.08;100511.31;5112269;28;20240;-52
2022/06/03 06:58:29;;;;;;;;;;;;;;;16.78;59.82;100519.03;5114097;27;19931;-52
2022/06/03 07:00:57;;;;;;;;;;;;;;;16.91;59.43;100508.59;5114142;27;19924;-53
2022/06/03 07:03:30;;;;;;;;;;;;;;;17.11;58.79;100509.56;5103971;27;19927;-52
2022/06/03 07:06:00;;;;;;;;;;;;;;;17.25;58.70;100509.16;5120197;27;20257;-52
2022/06/03 07:08:33;;;;;;;;;;;;;;;17.38;57.73;100504.28;5126895;27;19923;-52
2022/06/03 07:11:06;;;;;;;;;;;;;;;17.59;57.39;100495.59;5104899;28;19924;-52
2022/06/03 07:13:35;;;;;;;;;;;;;;;17.69;56.57;100499.88;5113512;28;19924;-53
2022/06/03 07:16:08;;;;;;;;;;;;;;;17.87;56.36;100497.53;5113446;27;20387;-54
2022/06/03 07:21:31;;;;;;;;;;;;;;;18.28;55.84;100498.97;5107665;28;20316;-52
2022/06/03 07:24:06;;;;;;;;;;;;;;;18.44;55.14;100499.75;5124024;27;19923;-52
2022/06/03 07:26:36;;;;;;;;;;;;;;;18.50;54.09;100514.41;5109676;27;20375;-54
2022/06/03 07:29:07;;;;;;;;;;;;;;;18.79;54.22;100506.59;5093697;28;19924;-52
2022/06/03 07:31:37;;;;;;;;;;;;;;;19.03;53.23;100506.34;5107186;28;19924;-53
2022/06/03 07:34:10;;;;;;;;;;;;;;;19.24;53.09;100505.94;5108107;28;19928;-54
2022/06/03 07:36:41;;;;;;;;;;;;;;;19.39;52.13;100498.56;5102107;28;19928;-54
2022/06/03 07:39:25;;;;;;;;;;;;;;;19.56;51.75;100493.63;5108435;27;19930;-57
2022/06/03 07:41:57;;;;;;;;;;;;;;;19.76;50.15;100495.25;5094693;28;20402;-57
2022/06/03 07:44:26;;;;;;;;;;;;;;;20.01;50.71;100492.03;5113227;28;20395;-55
2022/06/03 07:47:00;;;;;;;;;;;;;;;20.23;49.11;100491.19;5107667;28;19924;-57
2022/06/03 07:49:29;;;;;;;;;;;;;;;20.63;48.00;100478.47;5108340;27;20283;-57
2022/06/03 07:52:00;;;;;;;;;;;;;;;21.44;45.44;100477.06;5113378;28;19931;-57
2022/06/03 07:54:29;;;;;;;;;;;;;;;22.47;43.63;100470.66;5132367;27;19923;-54
2022/06/03 07:57:08;;;;;;;;;;;;;;;23.58;41.42;100461.78;5133086;27;19924;-54
2022/06/03 07:59:37;;;;;;;;;;;;;;;24.26;39.65;100453.28;5133722;27;19934;-57
2022/06/03 08:02:06;;;;;;;;;;;;;;;25.05;37.06;100453.06;5114232;28;19924;-55
2022/06/03 08:04:34;;;;;;;;;;;;;;;25.90;36.19;100450.13;5113203;28;19931;-56
2022/06/03 08:12:36;;;;;;;;;;;;;;;28.03;31.94;100454.84;5099809;28;19924;-57
2022/06/03 08:15:13;;;;;;;;;;;;;;;29.09;30.23;100451.16;5101836;28;20304;-54
2022/06/03 08:17:40;;;;;;;;;;;;;;;30.27;28.94;100443.88;5112244;28;19938;-55
2022/06/03 08:20:08;;;;;;;;;;;;;;;31.34;27.27;100449.44;5115674;28;19924;-55
2022/06/03 08:22:35;;;;;;;;;;;;;;;32.36;25.20;100442.81;5097834;28;19951;-53
2022/06/03 08:25:02;;;;;;;;;;;;;;;32.79;25.77;100433.88;5121250;28;19931;-53
2022/06/03 08:27:36;;;;;;;;;;;;;;;33.75;23.66;100424.31;5114419;28;19932;-56
2022/06/03 08:30:05;;;;;;;;;;;;;;;34.31;22.50;100425.25;5109915;28;19924;-56
2022/06/03 08:32:34;;;;;;;;;;;;;;;35.06;21.01;100421.00;5109975;28;19924;-54
2022/06/03 08:35:05;;;;;;;;;;;;;;;35.94;20.21;100420.03;5133578;28;19923;-55
2022/06/03 08:37:34;;;;;;;;;;;;;;;36.50;20.67;100419.66;5133315;28;19931;-55
2022/06/03 08:40:02;;;;;;;;;;;;;;;36.42;19.68;100418.44;5132975;28;19924;-53
2022/06/03 08:42:36;;;;;;;;;;;;;;;37.34;20.44;100429.16;5133635;28;19924;-55
2022/06/03 08:45:11;;;;;;;;;;;;;;;37.35;19.93;100425.72;5133176;28;19924;-55
2022/06/03 08:47:39;;;;;;;;;;;;;;;38.11;20.02;100421.34;5129734;28;19924;-56
2022/06/03 08:50:08;;;;;;;;;;;;;;;38.48;19.24;100409.91;5124742;28;19923;-55
2022/06/03 08:52:44;;;;;;;;;;;;;;;38.69;18.62;100413.59;5127285;28;20438;-56
2022/06/03 08:55:26;;;;;;;;;;;;;;;38.67;18.50;100409.63;5107073;28;19931;-55
2022/06/03 08:57:56;;;;;;;;;;;;;;;39.17;18.14;100413.03;5098574;28;19931;-56
2022/06/03 09:00:27;;;;;;;;;;;;;;;39.96;18.22;100407.81;5097604;28;19924;-56
2022/06/03 09:02:57;;;;;;;;;;;;;;;40.92;17.46;100410.28;5102506;28;19924;-53
2022/06/03 09:05:26;;;;;;;;;;;;;;;41.22;17.06;100418.56;5100279;28;19924;-56
2022/06/03 09:07:55;;;;;;;;;;;;;;;41.55;16.55;100417.72;5121042;28;20380;-56
2022/06/03 09:10:26;;;;;;;;;;;;;;;42.31;15.49;100416.47;5099808;28;20269;-56
2022/06/03 09:12:58;;;;;;;;;;;;;;;42.75;15.01;100416.78;5109991;28;19931;-56
2022/06/03 09:15:27;;;;;;;;;;;;;;;43.52;15.59;100413.81;5115096;28;19924;-53
2022/06/03 09:17:57;;;;;;;;;;;;;;;43.54;15.11;100414.06;5114559;28;19930;-56
2022/06/03 09:20:26;;;;;;;;;;;;;;;43.34;14.43;100414.53;5115935;27;20387;-56
2022/06/03 09:22:58;;;;;;;;;;;;;;;44.05;14.44;100407.69;5136442;27;20308;-55
2022/06/03 09:25:26;;;;;;;;;;;;;;;44.80;13.79;100408.28;5115581;27;19930;-55
2022/06/03 09:27:53;;;;;;;;;;;;;;;45.01;12.79;100393.81;5115897;28;20403;-56
2022/06/03 09:30:28;;;;;;;;;;;;;;;44.75;13.42;100396.06;5111833;28;19930;-56
2022/06/03 09:32:55;;;;;;;;;;;;;;;44.81;13.87;100392.22;5103307;27;19927;-55
2022/06/03 09:35:27;;;;;;;;;;;;;;;44.84;13.59;100391.13;5105335;27;19924;-56
2022/06/03 09:37:58;;;;;;;;;;;;;;;44.35;13.98;100395.00;5116158;27;19931;-56
2022/06/03 09:40:28;;;;;;;;;;;;;;;43.74;13.97;100389.34;5108133;28;19931;-56
2022/06/03 09:42:56;;;;;;;;;;;;;;;43.91;13.73;100392.09;5094749;28;19925;-56
2022/06/03 09:45:24;;;;;;;;;;;;;;;44.35;13.94;100389.94;5121916;27;19934;-56
2022/06/03 09:47:53;;;;;;;;;;;;;;;45.29;13.23;100391.19;5133916;27;19931;-56
2022/06/03 09:50:22;;;;;;;;;;;;;;;45.18;13.19;100398.03;5099603;27;19925;-57
2022/06/03 09:52:49;;;;;;;;;;;;;;;46.06;12.21;100389.50;5115130;28;19930;-53
2022/06/03 09:55:24;;;;;;;;;;;;;;;46.51;12.30;100385.56;5114021;28;19932;-54
2022/06/03 09:57:52;;;;;;;;;;;;;;;46.63;12.08;100386.09;5114882;28;19924;-56
2022/06/03 10:00:21;;;;;;;;;;;;;;;45.81;11.89;100388.13;5096123;27;19939;-55
2022/06/03 10:02:49;;;;;;;;;;;;;;;45.98;12.34;100379.72;5105254;27;19924;-54
2022/06/03 10:05:18;;;;;;;;;;;;;;;46.31;12.14;100375.28;5111156;27;19935;-54
2022/06/03 10:07:47;;;;;;;;;;;;;;;46.60;11.97;100380.53;5135188;27;19924;-55
2022/06/03 10:13:00;;;;;;;;;;;;;;;48.01;11.09;100380.66;5141447;27;19928;-53
2022/06/03 10:15:42;;;;;;;;;;;;;;;48.67;10.51;100369.50;5135264;27;19930;-53
2022/06/03 10:18:19;;;;;;;;;;;;;;;47.92;10.87;100376.06;5135616;27;19954;-55
2022/06/03 10:20:48;;;;;;;;;;;;;;;48.16;10.72;100371.06;5131719;27;19928;-53
2022/06/03 10:23:19;;;;;;;;;;;;;;;47.68;10.74;100371.38;5135602;27;19923;-55
2022/06/03 10:25:49;;;;;;;;;;;;;;;46.73;11.10;100365.78;5112392;27;19928;-52
2022/06/03 10:28:16;;;;;;;;;;;;;;;46.49;11.10;100358.03;5104199;28;20269;-55
2022/06/03 10:30:44;;;;;;;;;;;;;;;46.53;11.64;100358.47;5099915;28;19924;-54
2022/06/03 10:33:17;;;;;;;;;;;;;;;46.54;11.03;100360.06;5106080;27;19931;-52
2022/06/03 10:35:47;;;;;;;;;;;;;;;45.87;12.08;100362.31;5119286;27;19924;-52
2022/06/03 10:38:18;;;;;;;;;;;;;;;45.01;12.68;100362.28;5100197;27;19931;-53
2022/06/03 10:40:47;;;;;;;;;;;;;;;45.11;12.28;100357.56;5099993;28;19931;-52
2022/06/03 10:43:21;;;;;;;;;;;;;;;44.70;12.29;100352.84;5107715;27;19946;-55
2022/06/03 10:45:48;;;;;;;;;;;;;;;45.38;11.94;100357.59;5116482;27;20394;-56
2022/06/03 10:48:20;;;;;;;;;;;;;;;44.31;12.39;100365.97;5114123;27;19923;-55
2022/06/03 10:50:47;;;;;;;;;;;;;;;43.56;13.05;100352.72;5111061;27;19924;-55
2022/06/03 11:01:49;;;;;;;;;;;;;;;41.38;14.26;100341.75;5104467;28;21327;-52
2022/06/03 11:04:30;;;;;;;;;;;;;;;40.31;14.93;100336.59;5116890;27;19934;-55
2022/06/03 11:06:58;;;;;;;;;;;;;;;40.21;15.48;100335.22;5107742;27;19931;-52
2022/06/03 11:09:26;;;;;;;;;;;;;;;41.22;14.90;100351.31;5110367;28;19931;-52
2022/06/03 11:11:58;;;;;;;;;;;;;;;41.96;14.57;100329.34;5109182;28;20287;-55
2022/06/03 11:14:35;;;;;;;;;;;;;;;40.66;14.96;100317.81;5101845;28;19924;-52
2022/06/03 11:17:04;;;;;;;;;;;;;;;40.20;15.15;100330.72;5130997;27;19945;-55
2022/06/03 11:19:33;;;;;;;;;;;;;;;38.89;16.19;100337.03;5107707;27;20288;-55
2022/06/03 11:22:12;;;;;;;;;;;;;;;40.42;15.42;100338.75;5112652;28;19934;-55
2022/06/03 11:24:39;;;;;;;;;;;;;;;41.51;14.59;100344.09;5113442;28;19947;-55
2022/06/03 11:27:10;;;;;;;;;;;;;;;42.49;14.16;100321.38;5096670;28;19928;-52
2022/06/03 11:29:42;;;;;;;;;;;;;;;42.70;13.67;100318.81;5100621;28;20351;-52
2022/06/03 11:32:12;;;;;;;;;;;;;;;42.03;14.89;100313.38;5106588;27;19923;-52
2022/06/03 11:34:41;;;;;;;;;;;;;;;42.90;13.50;100313.88;5134336;27;19923;-53
2022/06/03 11:37:11;;;;;;;;;;;;;;;43.92;13.03;100316.56;5107734;28;19932;-55
2022/06/03 11:39:41;;;;;;;;;;;;;;;44.62;12.67;100316.66;5098709;28;19927;-54
2022/06/03 11:42:12;;;;;;;;;;;;;;;44.44;12.63;100305.69;5112174;28;20299;-55
2022/06/03 11:44:42;;;;;;;;;;;;;;;43.28;13.00;100314.09;5110927;27;20380;-56
2022/06/03 11:47:12;;;;;;;;;;;;;;;42.55;14.13;100306.69;5101210;28;19924;-53
2022/06/03 11:49:42;;;;;;;;;;;;;;;43.22;13.19;100301.59;5097590;28;20292;-52
2022/06/03 11:52:09;;;;;;;;;;;;;;;42.74;12.89;100307.59;5108464;28;19938;-53
2022/06/03 11:54:37;;;;;;;;;;;;;;;41.25;14.33;100315.19;5109831;28;19924;-54
2022/06/03 11:57:05;;;;;;;;;;;;;;;40.88;14.32;100313.34;5108073;28;19931;-56
2022/06/03 11:59:38;;;;;;;;;;;;;;;39.89;14.98;100314.94;5113191;28;19923;-53
2022/06/03 12:02:09;;;;;;;;;;;;;;;39.39;15.66;100306.69;5109719;28;19927;-55
2022/06/03 12:04:42;;;;;;;;;;;;;;;39.73;14.95;100312.72;5112533;28;19924;-52
2022/06/03 12:07:15;;;;;;;;;;;;;;;39.86;15.78;100307.25;5106052;28;19924;-53
2022/06/03 12:09:46;;;;;;;;;;;;;;;40.26;15.44;100299.41;5097120;28;19932;-53
2022/06/03 12:15:26;;;;;;;;;;;;;;;41.93;13.76;100293.16;5115700;28;19924;-54
2022/06/03 12:17:55;;;;;;;;;;;;;;;42.01;14.11;100286.78;5092263;28;19924;-54
2022/06/03 12:20:38;;;;;;;;;;;;;;;41.27;14.72;100286.22;5093062;28;20400;-54
2022/06/03 12:23:26;;;;;;;;;;;;;;;40.61;14.76;100279.84;5092366;28;19931;-55
2022/06/03 12:26:11;;;;;;;;;;;;;;;40.15;15.37;100284.78;5092068;28;19924;-53
2022/06/03 12:28:42;;;;;;;;;;;;;;;40.16;15.12;100283.47;5092585;28;19931;-52
2022/06/03 12:31:14;;;;;;;;;;;;;;;39.60;15.50;100289.06;5092178;28;19924;-54
2022/06/03 12:33:48;;;;;;;;;;;;;;;38.47;16.05;100280.25;5092570;28;19924;-53
2022/06/03 12:36:45;;;;;;;;;;;;;;;38.17;16.60;100276.78;5106655;28;19931;-51
2022/06/03 12:39:14;;;;;;;;;;;;;;;37.33;17.33;100283.06;5069400;28;19925;-54
2022/06/03 12:41:57;;;;;;;;;;;;;;;36.35;18.28;100286.16;5102839;28;19930;-54
2022/06/03 12:44:41;;;;;;;;;;;;;;;36.63;18.44;100285.91;5115684;28;19924;-54
2022/06/03 12:47:25;;;;;;;;;;;;;;;36.48;18.55;100288.78;5116987;28;20395;-52
2022/06/03 12:49:54;;;;;;;;;;;;;;;36.55;17.89;100291.28;5116786;28;20364;-55
2022/06/03 12:52:38;;;;;;;;;;;;;;;36.32;18.86;100290.84;5116905;28;19923;-51
2022/06/03 12:55:07;;;;;;;;;;;;;;;35.95;19.03;100291.19;5116138;28;19931;-51
2022/06/03 12:57:39;;;;;;;;;;;;;;;35.55;19.37;100282.91;5116739;28;20396;-53
2022/06/03 13:00:08;;;;;;;;;;;;;;;35.82;19.27;100281.13;5116378;28;20287;-52
2022/06/03 13:02:39;;;;;;;;;;;;;;;35.87;19.66;100283.38;5116320;28;19924;-54
2022/06/03 13:05:10;;;;;;;;;;;;;;;35.75;19.20;100285.22;5116013;28;19930;-52
2022/06/03 13:07:41;;;;;;;;;;;;;;;35.39;19.93;100280.47;5116232;28;19924;-52
2022/06/03 13:10:19;;;;;;;;;;;;;;;35.40;19.39;100277.06;5116025;28;19927;-52
2022/06/03 13:12:49;;;;;;;;;;;;;;;35.42;19.56;100277.38;5116001;28;19923;-54
2022/06/03 13:15:35;;;;;;;;;;;;;;;35.08;19.93;100281.56;5116366;28;20265;-52
2022/06/03 13:18:10;;;;;;;;;;;;;;;34.95;20.32;100276.00;5115842;28;19924;-54
2022/06/03 13:20:40;;;;;;;;;;;;;;;35.37;20.04;100278.84;5116114;28;20399;-51
2022/06/03 13:23:25;;;;;;;;;;;;;;;35.57;20.59;100281.16;5115862;28;19931;-52
2022/06/03 13:25:54;;;;;;;;;;;;;;;36.15;19.48;100278.94;5115505;28;19947;-53
2022/06/03 13:28:38;;;;;;;;;;;;;;;36.82;18.39;100278.56;5116057;28;19947;-53
2022/06/03 13:31:07;;;;;;;;;;;;;;;36.92;18.58;100276.38;5115481;28;19931;-50
2022/06/03 13:34:02;;;;;;;;;;;;;;;37.21;18.20;100287.09;5116138;28;19924;-53
2022/06/03 13:36:33;;;;;;;;;;;;;;;37.69;17.68;100285.97;5116003;28;19928;-54
2022/06/03 13:39:00;;;;;;;;;;;;;;;37.50;17.71;100276.69;5115779;28;20287;-52
2022/06/03 13:44:41;;;;;;;;;;;;;;;35.84;19.65;100279.34;5040453;28;19925;-51
2022/06/03 13:47:10;;;;;;;;;;;;;;;36.16;19.85;100268.94;5115129;28;19931;-53
2022/06/03 13:49:39;;;;;;;;;;;;;;;36.24;19.28;100280.94;5115814;28;20265;-55
2022/06/03 13:52:09;;;;;;;;;;;;;;;36.51;19.45;100279.06;5115107;28;20265;-54